sensor_id;sensor_type;location;lat;lon;timestamp;temperature;humidity
56538;DHT22;42435;53.292;6.000;2023-04-07T00:00:29;8.50;83.40
56538;DHT22;42435;53.292;6.000;2023-04-07T00:02:55;8.50;83.40
56538;DHT22;42435;53.292;6.000;2023-04-07T00:05:21;8.50;83.30
56538;DHT22;42435;53.292;6.000;2023-04-07T00:07:47;8.50;83.30
56538;DHT22;42435;53.292;6.000;2023-04-07T00:10:13;8.50;83.30
56538;DHT22;42435;53.292;6.000;2023-04-07T00:12:39;8.50;83.40
56538;DHT22;42435;53.292;6.000;2023-04-07T00:15:05;8.50;83.40
56538;DHT22;42435;53.292;6.000;2023-04-07T00:17:31;8.50;83.50
56538;DHT22;42435;53.292;6.000;2023-04-07T00:19:56;8.50;83.50
56538;DHT22;42435;53.292;6.000;2023-04-07T00:22:22;8.50;83.50
56538;DHT22;42435;53.292;6.000;2023-04-07T00:24:47;8.50;83.50
56538;DHT22;42435;53.292;6.000;2023-04-07T00:27:13;8.50;83.50
56538;DHT22;42435;53.292;6.000;2023-04-07T00:29:39;8.50;83.60
56538;DHT22;42435;53.292;6.000;2023-04-07T00:32:05;8.50;83.60
56538;DHT22;42435;53.292;6.000;2023-04-07T00:34:33;8.50;83.70
56538;DHT22;42435;53.292;6.000;2023-04-07T00:36:59;8.40;83.70
56538;DHT22;42435;53.292;6.000;2023-04-07T00:39:25;8.50;83.70
56538;DHT22;42435;53.292;6.000;2023-04-07T00:41:51;8.50;83.80
56538;DHT22;42435;53.292;6.000;2023-04-07T00:44:17;8.50;83.80
56538;DHT22;42435;53.292;6.000;2023-04-07T00:46:43;8.50;83.80
56538;DHT22;42435;53.292;6.000;2023-04-07T00:49:09;8.50;83.90
56538;DHT22;42435;53.292;6.000;2023-04-07T00:51:34;8.50;83.80
56538;DHT22;42435;53.292;6.000;2023-04-07T00:54:01;8.50;83.80
56538;DHT22;42435;53.292;6.000;2023-04-07T00:56:27;8.50;83.80
56538;DHT22;42435;53.292;6.000;2023-04-07T00:58:52;8.50;83.80
56538;DHT22;42435;53.292;6.000;2023-04-07T01:01:22;8.50;83.80
56538;DHT22;42435;53.292;6.000;2023-04-07T01:04:06;8.50;83.90
56538;DHT22;42435;53.292;6.000;2023-04-07T01:06:36;8.50;84.00
56538;DHT22;42435;53.292;6.000;2023-04-07T01:09:09;8.50;83.90
56538;DHT22;42435;53.292;6.000;2023-04-07T01:11:41;8.50;83.90
56538;DHT22;42435;53.292;6.000;2023-04-07T01:14:09;8.50;84.00
56538;DHT22;42435;53.292;6.000;2023-04-07T01:16:43;8.50;83.90
56538;DHT22;42435;53.292;6.000;2023-04-07T01:22:14;8.60;84.00
56538;DHT22;42435;53.292;6.000;2023-04-07T01:28:21;8.60;83.90
56538;DHT22;42435;53.292;6.000;2023-04-07T01:30:53;8.60;83.80
56538;DHT22;42435;53.292;6.000;2023-04-07T01:33:21;8.60;83.50
56538;DHT22;42435;53.292;6.000;2023-04-07T01:35:48;8.50;83.40
56538;DHT22;42435;53.292;6.000;2023-04-07T01:38:15;8.50;83.60
56538;DHT22;42435;53.292;6.000;2023-04-07T01:40:40;8.60;83.70
56538;DHT22;42435;53.292;6.000;2023-04-07T01:43:07;8.50;83.70
56538;DHT22;42435;53.292;6.000;2023-04-07T01:45:34;8.50;83.80
56538;DHT22;42435;53.292;6.000;2023-04-07T01:48:00;8.50;83.80
56538;DHT22;42435;53.292;6.000;2023-04-07T01:50:28;8.50;83.80
56538;DHT22;42435;53.292;6.000;2023-04-07T01:52:54;8.50;83.90
56538;DHT22;42435;53.292;6.000;2023-04-07T01:55:20;8.50;84.00
56538;DHT22;42435;53.292;6.000;2023-04-07T01:57:46;8.50;84.00
56538;DHT22;42435;53.292;6.000;2023-04-07T02:00:13;8.60;84.10
56538;DHT22;42435;53.292;6.000;2023-04-07T02:02:43;8.50;84.00
56538;DHT22;42435;53.292;6.000;2023-04-07T02:05:12;8.50;84.10
56538;DHT22;42435;53.292;6.000;2023-04-07T02:07:57;8.50;84.10
56538;DHT22;42435;53.292;6.000;2023-04-07T02:10:26;8.60;84.20
56538;DHT22;42435;53.292;6.000;2023-04-07T02:12:53;8.50;84.10
56538;DHT22;42435;53.292;6.000;2023-04-07T02:15:20;8.60;84.10
56538;DHT22;42435;53.292;6.000;2023-04-07T02:17:48;8.50;84.10
56538;DHT22;42435;53.292;6.000;2023-04-07T02:20:16;8.50;84.20
56538;DHT22;42435;53.292;6.000;2023-04-07T02:22:42;8.50;84.20
56538;DHT22;42435;53.292;6.000;2023-04-07T02:25:23;8.50;84.30
56538;DHT22;42435;53.292;6.000;2023-04-07T02:27:52;8.50;84.40
56538;DHT22;42435;53.292;6.000;2023-04-07T02:30:19;8.50;84.30
56538;DHT22;42435;53.292;6.000;2023-04-07T02:32:44;8.50;84.30
56538;DHT22;42435;53.292;6.000;2023-04-07T02:35:10;8.50;84.30
56538;DHT22;42435;53.292;6.000;2023-04-07T02:37:37;8.50;84.40
56538;DHT22;42435;53.292;6.000;2023-04-07T02:40:03;8.50;84.40
56538;DHT22;42435;53.292;6.000;2023-04-07T02:42:29;8.60;84.40
56538;DHT22;42435;53.292;6.000;2023-04-07T02:44:55;8.50;84.40
56538;DHT22;42435;53.292;6.000;2023-04-07T02:47:21;8.60;84.40
56538;DHT22;42435;53.292;6.000;2023-04-07T02:49:46;8.60;84.40
56538;DHT22;42435;53.292;6.000;2023-04-07T02:52:12;8.60;84.40
56538;DHT22;42435;53.292;6.000;2023-04-07T02:54:37;8.60;84.40
56538;DHT22;42435;53.292;6.000;2023-04-07T02:57:03;8.60;84.40
56538;DHT22;42435;53.292;6.000;2023-04-07T02:59:29;8.60;84.40
56538;DHT22;42435;53.292;6.000;2023-04-07T03:01:54;8.60;84.50
56538;DHT22;42435;53.292;6.000;2023-04-07T03:04:21;8.60;84.40
56538;DHT22;42435;53.292;6.000;2023-04-07T03:06:46;8.60;84.50
56538;DHT22;42435;53.292;6.000;2023-04-07T03:09:12;8.70;84.50
56538;DHT22;42435;53.292;6.000;2023-04-07T03:11:38;8.60;84.50
56538;DHT22;42435;53.292;6.000;2023-04-07T03:14:04;8.60;84.40
56538;DHT22;42435;53.292;6.000;2023-04-07T03:16:29;8.60;84.40
56538;DHT22;42435;53.292;6.000;2023-04-07T03:18:55;8.70;84.40
56538;DHT22;42435;53.292;6.000;2023-04-07T03:21:20;8.70;84.40
56538;DHT22;42435;53.292;6.000;2023-04-07T03:23:46;8.70;84.40
56538;DHT22;42435;53.292;6.000;2023-04-07T03:26:12;8.60;84.40
56538;DHT22;42435;53.292;6.000;2023-04-07T03:28:37;8.70;84.40
56538;DHT22;42435;53.292;6.000;2023-04-07T03:31:03;8.70;84.40
56538;DHT22;42435;53.292;6.000;2023-04-07T03:33:28;8.60;84.40
56538;DHT22;42435;53.292;6.000;2023-04-07T03:35:54;8.70;84.50
56538;DHT22;42435;53.292;6.000;2023-04-07T03:38:20;8.60;84.50
56538;DHT22;42435;53.292;6.000;2023-04-07T03:40:48;8.70;84.50
56538;DHT22;42435;53.292;6.000;2023-04-07T03:43:14;8.70;84.50
56538;DHT22;42435;53.292;6.000;2023-04-07T03:45:41;8.70;84.50
56538;DHT22;42435;53.292;6.000;2023-04-07T03:48:06;8.70;84.50
56538;DHT22;42435;53.292;6.000;2023-04-07T03:50:39;8.70;84.50
56538;DHT22;42435;53.292;6.000;2023-04-07T03:53:05;8.70;84.60
56538;DHT22;42435;53.292;6.000;2023-04-07T03:55:31;8.70;84.60
56538;DHT22;42435;53.292;6.000;2023-04-07T03:57:57;8.70;84.50
56538;DHT22;42435;53.292;6.000;2023-04-07T04:00:23;8.70;84.50
56538;DHT22;42435;53.292;6.000;2023-04-07T04:02:49;8.70;84.60
56538;DHT22;42435;53.292;6.000;2023-04-07T04:05:15;8.70;84.60
56538;DHT22;42435;53.292;6.000;2023-04-07T04:07:40;8.70;84.60
56538;DHT22;42435;53.292;6.000;2023-04-07T04:10:06;8.70;84.60
56538;DHT22;42435;53.292;6.000;2023-04-07T04:12:32;8.70;84.60
56538;DHT22;42435;53.292;6.000;2023-04-07T04:14:58;8.70;84.60
56538;DHT22;42435;53.292;6.000;2023-04-07T04:17:24;8.70;84.70
56538;DHT22;42435;53.292;6.000;2023-04-07T04:19:50;8.60;84.70
56538;DHT22;42435;53.292;6.000;2023-04-07T04:22:15;8.70;84.70
56538;DHT22;42435;53.292;6.000;2023-04-07T04:24:41;8.60;84.70
56538;DHT22;42435;53.292;6.000;2023-04-07T04:27:07;8.60;84.70
56538;DHT22;42435;53.292;6.000;2023-04-07T04:29:33;8.70;84.70
56538;DHT22;42435;53.292;6.000;2023-04-07T04:31:58;8.60;84.70
56538;DHT22;42435;53.292;6.000;2023-04-07T04:34:24;8.60;84.80
56538;DHT22;42435;53.292;6.000;2023-04-07T04:36:49;8.60;84.80
56538;DHT22;42435;53.292;6.000;2023-04-07T04:39:15;8.60;84.90
56538;DHT22;42435;53.292;6.000;2023-04-07T04:41:41;8.60;84.80
56538;DHT22;42435;53.292;6.000;2023-04-07T04:44:06;8.60;84.90
56538;DHT22;42435;53.292;6.000;2023-04-07T04:46:32;8.60;84.80
56538;DHT22;42435;53.292;6.000;2023-04-07T04:48:57;8.60;84.90
56538;DHT22;42435;53.292;6.000;2023-04-07T04:51:23;8.60;84.80
56538;DHT22;42435;53.292;6.000;2023-04-07T04:53:49;8.50;84.80
56538;DHT22;42435;53.292;6.000;2023-04-07T04:56:14;8.50;84.70
56538;DHT22;42435;53.292;6.000;2023-04-07T04:58:40;8.50;84.70
56538;DHT22;42435;53.292;6.000;2023-04-07T05:01:11;8.50;84.80
56538;DHT22;42435;53.292;6.000;2023-04-07T05:03:37;8.50;84.80
56538;DHT22;42435;53.292;6.000;2023-04-07T05:06:02;8.40;84.90
56538;DHT22;42435;53.292;6.000;2023-04-07T05:08:28;8.40;84.90
56538;DHT22;42435;53.292;6.000;2023-04-07T05:10:54;8.40;84.90
56538;DHT22;42435;53.292;6.000;2023-04-07T05:13:20;8.40;85.00
56538;DHT22;42435;53.292;6.000;2023-04-07T05:15:46;8.40;85.00
56538;DHT22;42435;53.292;6.000;2023-04-07T05:18:14;8.40;85.00
56538;DHT22;42435;53.292;6.000;2023-04-07T05:20:39;8.40;85.10
56538;DHT22;42435;53.292;6.000;2023-04-07T05:23:05;8.40;85.10
56538;DHT22;42435;53.292;6.000;2023-04-07T05:25:31;8.40;85.10
56538;DHT22;42435;53.292;6.000;2023-04-07T05:28:00;8.40;85.20
56538;DHT22;42435;53.292;6.000;2023-04-07T05:30:25;8.40;85.20
56538;DHT22;42435;53.292;6.000;2023-04-07T05:32:52;8.40;85.20
56538;DHT22;42435;53.292;6.000;2023-04-07T05:35:17;8.40;85.20
56538;DHT22;42435;53.292;6.000;2023-04-07T05:37:43;8.40;85.20
56538;DHT22;42435;53.292;6.000;2023-04-07T05:40:09;8.40;85.30
56538;DHT22;42435;53.292;6.000;2023-04-07T05:42:35;8.50;85.30
56538;DHT22;42435;53.292;6.000;2023-04-07T05:45:02;8.50;85.30
56538;DHT22;42435;53.292;6.000;2023-04-07T05:47:27;8.50;85.20
56538;DHT22;42435;53.292;6.000;2023-04-07T05:49:53;8.50;85.20
56538;DHT22;42435;53.292;6.000;2023-04-07T05:52:22;8.50;85.10
56538;DHT22;42435;53.292;6.000;2023-04-07T05:54:47;8.50;85.10
56538;DHT22;42435;53.292;6.000;2023-04-07T05:57:13;8.50;85.00
56538;DHT22;42435;53.292;6.000;2023-04-07T05:59:39;8.50;85.10
56538;DHT22;42435;53.292;6.000;2023-04-07T06:02:05;8.50;85.10
56538;DHT22;42435;53.292;6.000;2023-04-07T06:04:31;8.50;85.10
56538;DHT22;42435;53.292;6.000;2023-04-07T06:06:58;8.50;85.20
56538;DHT22;42435;53.292;6.000;2023-04-07T06:09:23;8.50;85.10
56538;DHT22;42435;53.292;6.000;2023-04-07T06:11:49;8.50;85.10
56538;DHT22;42435;53.292;6.000;2023-04-07T06:14:16;8.50;85.10
56538;DHT22;42435;53.292;6.000;2023-04-07T06:16:42;8.50;85.10
56538;DHT22;42435;53.292;6.000;2023-04-07T06:19:07;8.50;85.10
56538;DHT22;42435;53.292;6.000;2023-04-07T06:21:33;8.50;85.10
56538;DHT22;42435;53.292;6.000;2023-04-07T06:23:59;8.60;85.00
56538;DHT22;42435;53.292;6.000;2023-04-07T06:26:25;8.50;85.00
56538;DHT22;42435;53.292;6.000;2023-04-07T06:28:54;8.50;84.90
56538;DHT22;42435;53.292;6.000;2023-04-07T06:31:20;8.50;85.00
56538;DHT22;42435;53.292;6.000;2023-04-07T06:33:45;8.50;85.10
56538;DHT22;42435;53.292;6.000;2023-04-07T06:36:11;8.50;85.20
56538;DHT22;42435;53.292;6.000;2023-04-07T06:38:37;8.50;85.10
56538;DHT22;42435;53.292;6.000;2023-04-07T06:41:03;8.50;85.10
56538;DHT22;42435;53.292;6.000;2023-04-07T06:43:35;8.60;85.10
56538;DHT22;42435;53.292;6.000;2023-04-07T06:46:00;8.50;85.00
56538;DHT22;42435;53.292;6.000;2023-04-07T06:48:28;8.50;85.00
56538;DHT22;42435;53.292;6.000;2023-04-07T06:50:54;8.60;85.10
56538;DHT22;42435;53.292;6.000;2023-04-07T06:53:20;8.60;85.10
56538;DHT22;42435;53.292;6.000;2023-04-07T06:55:46;8.60;85.10
56538;DHT22;42435;53.292;6.000;2023-04-07T06:58:11;8.70;85.00
56538;DHT22;42435;53.292;6.000;2023-04-07T07:00:37;8.70;85.00
56538;DHT22;42435;53.292;6.000;2023-04-07T07:03:03;8.70;85.00
56538;DHT22;42435;53.292;6.000;2023-04-07T07:05:29;8.80;85.10
56538;DHT22;42435;53.292;6.000;2023-04-07T07:07:54;8.80;85.10
56538;DHT22;42435;53.292;6.000;2023-04-07T07:10:20;8.80;85.00
56538;DHT22;42435;53.292;6.000;2023-04-07T07:12:50;8.80;84.90
56538;DHT22;42435;53.292;6.000;2023-04-07T07:15:16;8.90;84.90
56538;DHT22;42435;53.292;6.000;2023-04-07T07:17:42;8.90;84.90
56538;DHT22;42435;53.292;6.000;2023-04-07T07:20:08;8.90;84.90
56538;DHT22;42435;53.292;6.000;2023-04-07T07:22:34;8.90;84.90
56538;DHT22;42435;53.292;6.000;2023-04-07T07:25:00;9.00;84.90
56538;DHT22;42435;53.292;6.000;2023-04-07T07:27:25;9.00;84.80
56538;DHT22;42435;53.292;6.000;2023-04-07T07:29:51;9.00;84.80
56538;DHT22;42435;53.292;6.000;2023-04-07T07:32:17;9.00;84.80
56538;DHT22;42435;53.292;6.000;2023-04-07T07:34:42;9.10;84.70
56538;DHT22;42435;53.292;6.000;2023-04-07T07:37:08;9.10;84.60
56538;DHT22;42435;53.292;6.000;2023-04-07T07:39:33;9.20;84.50
56538;DHT22;42435;53.292;6.000;2023-04-07T07:41:59;9.20;84.50
56538;DHT22;42435;53.292;6.000;2023-04-07T07:44:25;9.20;84.40
56538;DHT22;42435;53.292;6.000;2023-04-07T07:46:51;9.20;84.40
56538;DHT22;42435;53.292;6.000;2023-04-07T07:49:17;9.20;84.40
56538;DHT22;42435;53.292;6.000;2023-04-07T07:51:42;9.20;84.30
56538;DHT22;42435;53.292;6.000;2023-04-07T07:54:10;9.20;84.40
56538;DHT22;42435;53.292;6.000;2023-04-07T07:56:36;9.30;84.30
56538;DHT22;42435;53.292;6.000;2023-04-07T07:59:02;9.30;84.30
56538;DHT22;42435;53.292;6.000;2023-04-07T08:01:27;9.40;84.20
56538;DHT22;42435;53.292;6.000;2023-04-07T08:03:53;9.40;84.20
56538;DHT22;42435;53.292;6.000;2023-04-07T08:06:19;9.40;84.20
56538;DHT22;42435;53.292;6.000;2023-04-07T08:08:44;9.50;84.20
56538;DHT22;42435;53.292;6.000;2023-04-07T08:11:10;9.50;84.10
56538;DHT22;42435;53.292;6.000;2023-04-07T08:13:36;9.70;83.90
56538;DHT22;42435;53.292;6.000;2023-04-07T08:16:01;9.60;83.80
56538;DHT22;42435;53.292;6.000;2023-04-07T08:18:27;9.70;83.70
56538;DHT22;42435;53.292;6.000;2023-04-07T08:20:52;9.70;83.60
56538;DHT22;42435;53.292;6.000;2023-04-07T08:23:18;9.70;83.40
56538;DHT22;42435;53.292;6.000;2023-04-07T08:25:44;9.70;83.30
56538;DHT22;42435;53.292;6.000;2023-04-07T08:28:09;9.80;83.40
56538;DHT22;42435;53.292;6.000;2023-04-07T08:30:35;9.80;83.40
56538;DHT22;42435;53.292;6.000;2023-04-07T08:33:04;9.90;83.50
56538;DHT22;42435;53.292;6.000;2023-04-07T08:35:29;9.90;83.40
56538;DHT22;42435;53.292;6.000;2023-04-07T08:37:55;10.00;83.40
56538;DHT22;42435;53.292;6.000;2023-04-07T08:40:20;10.10;83.20
56538;DHT22;42435;53.292;6.000;2023-04-07T08:42:47;10.10;82.90
56538;DHT22;42435;53.292;6.000;2023-04-07T08:45:17;10.10;82.70
56538;DHT22;42435;53.292;6.000;2023-04-07T08:47:45;10.20;82.80
56538;DHT22;42435;53.292;6.000;2023-04-07T08:50:16;10.30;82.90
56538;DHT22;42435;53.292;6.000;2023-04-07T08:52:49;10.40;82.80
56538;DHT22;42435;53.292;6.000;2023-04-07T08:55:15;10.40;82.40
56538;DHT22;42435;53.292;6.000;2023-04-07T08:57:42;10.50;82.20
56538;DHT22;42435;53.292;6.000;2023-04-07T09:00:08;10.50;82.00
56538;DHT22;42435;53.292;6.000;2023-04-07T09:02:40;10.50;81.60
56538;DHT22;42435;53.292;6.000;2023-04-07T09:05:09;10.50;81.40
56538;DHT22;42435;53.292;6.000;2023-04-07T09:07:36;10.50;81.30
56538;DHT22;42435;53.292;6.000;2023-04-07T09:10:03;10.40;81.20
56538;DHT22;42435;53.292;6.000;2023-04-07T09:12:29;10.40;81.20
56538;DHT22;42435;53.292;6.000;2023-04-07T09:14:56;10.40;81.20
56538;DHT22;42435;53.292;6.000;2023-04-07T09:17:24;10.40;81.10
56538;DHT22;42435;53.292;6.000;2023-04-07T09:19:55;10.40;81.20
56538;DHT22;42435;53.292;6.000;2023-04-07T09:22:41;10.40;81.20
56538;DHT22;42435;53.292;6.000;2023-04-07T09:25:23;10.40;81.20
56538;DHT22;42435;53.292;6.000;2023-04-07T09:27:58;10.40;81.10
56538;DHT22;42435;53.292;6.000;2023-04-07T09:30:25;10.40;81.00
56538;DHT22;42435;53.292;6.000;2023-04-07T09:32:50;10.40;80.80
56538;DHT22;42435;53.292;6.000;2023-04-07T09:35:16;10.40;80.70
56538;DHT22;42435;53.292;6.000;2023-04-07T09:37:42;10.40;80.80
56538;DHT22;42435;53.292;6.000;2023-04-07T09:40:09;10.40;80.80
56538;DHT22;42435;53.292;6.000;2023-04-07T09:42:54;10.40;80.80
56538;DHT22;42435;53.292;6.000;2023-04-07T09:45:27;10.40;80.60
56538;DHT22;42435;53.292;6.000;2023-04-07T09:47:53;10.40;80.50
56538;DHT22;42435;53.292;6.000;2023-04-07T09:50:38;10.40;80.50
56538;DHT22;42435;53.292;6.000;2023-04-07T09:53:04;10.50;80.50
56538;DHT22;42435;53.292;6.000;2023-04-07T09:55:30;10.60;80.40
56538;DHT22;42435;53.292;6.000;2023-04-07T09:57:59;10.70;80.30
56538;DHT22;42435;53.292;6.000;2023-04-07T10:00:26;10.70;80.00
56538;DHT22;42435;53.292;6.000;2023-04-07T10:02:51;10.70;79.90
56538;DHT22;42435;53.292;6.000;2023-04-07T10:05:17;10.80;79.90
56538;DHT22;42435;53.292;6.000;2023-04-07T10:07:46;10.80;80.00
56538;DHT22;42435;53.292;6.000;2023-04-07T10:10:12;10.80;79.90
56538;DHT22;42435;53.292;6.000;2023-04-07T10:12:38;10.90;80.00
56538;DHT22;42435;53.292;6.000;2023-04-07T10:15:06;10.90;79.60
56538;DHT22;42435;53.292;6.000;2023-04-07T10:17:32;10.80;79.70
56538;DHT22;42435;53.292;6.000;2023-04-07T10:19:58;10.80;79.80
56538;DHT22;42435;53.292;6.000;2023-04-07T10:22:26;10.90;79.90
56538;DHT22;42435;53.292;6.000;2023-04-07T10:27:40;11.00;79.70
56538;DHT22;42435;53.292;6.000;2023-04-07T10:30:19;11.00;79.30
56538;DHT22;42435;53.292;6.000;2023-04-07T10:32:51;11.10;79.30
56538;DHT22;42435;53.292;6.000;2023-04-07T10:35:19;11.10;79.10
56538;DHT22;42435;53.292;6.000;2023-04-07T10:40:35;11.20;79.10
56538;DHT22;42435;53.292;6.000;2023-04-07T10:43:02;11.40;78.90
56538;DHT22;42435;53.292;6.000;2023-04-07T10:48:16;11.70;78.40
56538;DHT22;42435;53.292;6.000;2023-04-07T10:50:44;11.70;78.00
56538;DHT22;42435;53.292;6.000;2023-04-07T10:53:14;11.70;77.40
56538;DHT22;42435;53.292;6.000;2023-04-07T10:55:44;11.70;76.70
56538;DHT22;42435;53.292;6.000;2023-04-07T11:03:22;11.80;76.00
56538;DHT22;42435;53.292;6.000;2023-04-07T11:05:51;11.70;76.00
56538;DHT22;42435;53.292;6.000;2023-04-07T11:10:58;11.70;75.40
56538;DHT22;42435;53.292;6.000;2023-04-07T11:13:24;11.70;75.40
56538;DHT22;42435;53.292;6.000;2023-04-07T11:15:50;11.70;75.50
56538;DHT22;42435;53.292;6.000;2023-04-07T11:18:18;11.70;75.20
56538;DHT22;42435;53.292;6.000;2023-04-07T11:20:50;11.70;75.10
56538;DHT22;42435;53.292;6.000;2023-04-07T11:23:18;11.60;75.20
56538;DHT22;42435;53.292;6.000;2023-04-07T11:25:46;11.60;75.10
56538;DHT22;42435;53.292;6.000;2023-04-07T11:28:12;11.70;74.90
56538;DHT22;42435;53.292;6.000;2023-04-07T11:30:44;11.60;74.90
56538;DHT22;42435;53.292;6.000;2023-04-07T11:33:24;11.60;74.80
56538;DHT22;42435;53.292;6.000;2023-04-07T11:35:52;11.50;74.90
56538;DHT22;42435;53.292;6.000;2023-04-07T11:38:23;11.50;74.90
56538;DHT22;42435;53.292;6.000;2023-04-07T11:40:49;11.50;74.90
56538;DHT22;42435;53.292;6.000;2023-04-07T11:43:23;11.60;75.10
56538;DHT22;42435;53.292;6.000;2023-04-07T11:46:12;11.60;75.10
56538;DHT22;42435;53.292;6.000;2023-04-07T11:48:40;11.70;75.00
56538;DHT22;42435;53.292;6.000;2023-04-07T11:51:15;11.80;75.00
56538;DHT22;42435;53.292;6.000;2023-04-07T11:53:44;11.80;74.80
56538;DHT22;42435;53.292;6.000;2023-04-07T11:56:14;11.90;74.60
56538;DHT22;42435;53.292;6.000;2023-04-07T11:58:49;11.90;74.30
56538;DHT22;42435;53.292;6.000;2023-04-07T12:01:15;12.00;73.90
56538;DHT22;42435;53.292;6.000;2023-04-07T12:04:01;12.10;73.90
56538;DHT22;42435;53.292;6.000;2023-04-07T12:06:28;12.20;73.90
56538;DHT22;42435;53.292;6.000;2023-04-07T12:08:55;12.30;74.00
56538;DHT22;42435;53.292;6.000;2023-04-07T12:11:21;12.40;73.80
56538;DHT22;42435;53.292;6.000;2023-04-07T12:13:47;12.50;73.40
56538;DHT22;42435;53.292;6.000;2023-04-07T12:16:12;12.60;73.00
56538;DHT22;42435;53.292;6.000;2023-04-07T12:18:38;12.60;72.90
56538;DHT22;42435;53.292;6.000;2023-04-07T12:21:04;12.70;72.70
56538;DHT22;42435;53.292;6.000;2023-04-07T12:23:39;12.90;72.20
56538;DHT22;42435;53.292;6.000;2023-04-07T12:26:05;13.10;71.60
56538;DHT22;42435;53.292;6.000;2023-04-07T12:28:32;13.20;71.80
56538;DHT22;42435;53.292;6.000;2023-04-07T12:30:58;13.40;71.60
56538;DHT22;42435;53.292;6.000;2023-04-07T12:33:24;13.50;70.90
56538;DHT22;42435;53.292;6.000;2023-04-07T12:35:49;13.60;70.10
56538;DHT22;42435;53.292;6.000;2023-04-07T12:38:16;13.70;69.90
56538;DHT22;42435;53.292;6.000;2023-04-07T12:40:42;13.80;69.70
56538;DHT22;42435;53.292;6.000;2023-04-07T12:43:08;13.90;69.70
56538;DHT22;42435;53.292;6.000;2023-04-07T12:45:34;14.00;69.80
56538;DHT22;42435;53.292;6.000;2023-04-07T12:48:02;14.10;69.20
56538;DHT22;42435;53.292;6.000;2023-04-07T12:50:31;14.20;68.50
56538;DHT22;42435;53.292;6.000;2023-04-07T12:52:57;14.30;68.20
56538;DHT22;42435;53.292;6.000;2023-04-07T12:55:30;14.20;67.60
56538;DHT22;42435;53.292;6.000;2023-04-07T12:57:58;14.10;67.30
56538;DHT22;42435;53.292;6.000;2023-04-07T13:00:24;14.20;66.80
56538;DHT22;42435;53.292;6.000;2023-04-07T13:02:49;14.20;67.00
56538;DHT22;42435;53.292;6.000;2023-04-07T13:05:15;14.30;66.80
56538;DHT22;42435;53.292;6.000;2023-04-07T13:07:41;14.40;66.70
56538;DHT22;42435;53.292;6.000;2023-04-07T13:10:07;14.50;66.70
56538;DHT22;42435;53.292;6.000;2023-04-07T13:12:34;14.50;66.50
56538;DHT22;42435;53.292;6.000;2023-04-07T13:14:59;14.50;66.00
56538;DHT22;42435;53.292;6.000;2023-04-07T13:17:25;14.60;65.70
56538;DHT22;42435;53.292;6.000;2023-04-07T13:19:51;14.60;65.30
56538;DHT22;42435;53.292;6.000;2023-04-07T13:22:17;14.70;65.40
56538;DHT22;42435;53.292;6.000;2023-04-07T13:24:42;14.80;65.00
56538;DHT22;42435;53.292;6.000;2023-04-07T13:27:11;14.90;65.00
56538;DHT22;42435;53.292;6.000;2023-04-07T13:29:37;15.00;64.40
56538;DHT22;42435;53.292;6.000;2023-04-07T13:32:07;15.10;64.50
56538;DHT22;42435;53.292;6.000;2023-04-07T13:34:36;15.30;63.10
56538;DHT22;42435;53.292;6.000;2023-04-07T13:37:04;15.40;63.10
56538;DHT22;42435;53.292;6.000;2023-04-07T13:39:31;15.40;62.50
56538;DHT22;42435;53.292;6.000;2023-04-07T13:41:58;15.50;62.00
56538;DHT22;42435;53.292;6.000;2023-04-07T13:44:24;15.60;61.70
56538;DHT22;42435;53.292;6.000;2023-04-07T13:46:50;15.60;61.50
56538;DHT22;42435;53.292;6.000;2023-04-07T13:49:17;15.50;61.00
56538;DHT22;42435;53.292;6.000;2023-04-07T13:51:42;15.50;61.10
56538;DHT22;42435;53.292;6.000;2023-04-07T13:54:08;15.50;60.90
56538;DHT22;42435;53.292;6.000;2023-04-07T13:56:34;15.40;60.60
56538;DHT22;42435;53.292;6.000;2023-04-07T13:59:05;15.30;60.70
56538;DHT22;42435;53.292;6.000;2023-04-07T14:01:34;15.20;61.10
56538;DHT22;42435;53.292;6.000;2023-04-07T14:04:03;15.00;61.80
56538;DHT22;42435;53.292;6.000;2023-04-07T14:06:32;15.10;61.50
56538;DHT22;42435;53.292;6.000;2023-04-07T14:08:58;15.20;61.30
56538;DHT22;42435;53.292;6.000;2023-04-07T14:11:24;15.30;61.50
56538;DHT22;42435;53.292;6.000;2023-04-07T14:13:54;15.40;61.20
56538;DHT22;42435;53.292;6.000;2023-04-07T14:16:24;15.50;60.60
56538;DHT22;42435;53.292;6.000;2023-04-07T14:18:49;15.60;60.30
56538;DHT22;42435;53.292;6.000;2023-04-07T14:21:16;15.50;60.00
56538;DHT22;42435;53.292;6.000;2023-04-07T14:23:43;15.50;59.70
56538;DHT22;42435;53.292;6.000;2023-04-07T14:26:12;15.40;59.30
56538;DHT22;42435;53.292;6.000;2023-04-07T14:28:38;15.30;59.10
56538;DHT22;42435;53.292;6.000;2023-04-07T14:31:03;15.20;59.40
56538;DHT22;42435;53.292;6.000;2023-04-07T14:33:29;15.20;59.90
56538;DHT22;42435;53.292;6.000;2023-04-07T14:35:55;15.10;59.70
56538;DHT22;42435;53.292;6.000;2023-04-07T14:38:21;15.10;59.50
56538;DHT22;42435;53.292;6.000;2023-04-07T14:40:53;15.10;59.60
56538;DHT22;42435;53.292;6.000;2023-04-07T14:43:19;15.00;59.40
56538;DHT22;42435;53.292;6.000;2023-04-07T14:45:44;15.00;59.00
56538;DHT22;42435;53.292;6.000;2023-04-07T14:48:10;15.00;58.90
56538;DHT22;42435;53.292;6.000;2023-04-07T14:50:36;15.00;59.40
56538;DHT22;42435;53.292;6.000;2023-04-07T14:53:04;15.00;58.90
56538;DHT22;42435;53.292;6.000;2023-04-07T14:55:33;15.00;58.60
56538;DHT22;42435;53.292;6.000;2023-04-07T14:57:59;15.00;58.50
56538;DHT22;42435;53.292;6.000;2023-04-07T15:00:25;15.00;58.70
56538;DHT22;42435;53.292;6.000;2023-04-07T15:02:54;14.90;58.40
56538;DHT22;42435;53.292;6.000;2023-04-07T15:05:20;14.90;58.50
56538;DHT22;42435;53.292;6.000;2023-04-07T15:07:50;14.90;58.60
56538;DHT22;42435;53.292;6.000;2023-04-07T15:10:17;14.90;58.40
56538;DHT22;42435;53.292;6.000;2023-04-07T15:12:46;14.80;58.80
56538;DHT22;42435;53.292;6.000;2023-04-07T15:15:13;14.80;59.00
56538;DHT22;42435;53.292;6.000;2023-04-07T15:17:39;14.70;58.80
56538;DHT22;42435;53.292;6.000;2023-04-07T15:20:08;14.70;59.10
56538;DHT22;42435;53.292;6.000;2023-04-07T15:22:34;14.70;59.00
56538;DHT22;42435;53.292;6.000;2023-04-07T15:25:00;14.70;58.80
56538;DHT22;42435;53.292;6.000;2023-04-07T15:27:27;14.70;58.80
56538;DHT22;42435;53.292;6.000;2023-04-07T15:29:53;14.70;59.40
56538;DHT22;42435;53.292;6.000;2023-04-07T15:32:21;14.60;59.20
56538;DHT22;42435;53.292;6.000;2023-04-07T15:34:48;14.60;58.90
56538;DHT22;42435;53.292;6.000;2023-04-07T15:37:14;14.50;58.90
56538;DHT22;42435;53.292;6.000;2023-04-07T15:39:41;14.50;59.30
56538;DHT22;42435;53.292;6.000;2023-04-07T15:42:07;14.50;59.30
56538;DHT22;42435;53.292;6.000;2023-04-07T15:44:36;14.50;59.00
56538;DHT22;42435;53.292;6.000;2023-04-07T15:47:04;14.50;58.90
56538;DHT22;42435;53.292;6.000;2023-04-07T15:49:33;14.40;59.10
56538;DHT22;42435;53.292;6.000;2023-04-07T15:52:03;14.50;59.40
56538;DHT22;42435;53.292;6.000;2023-04-07T15:54:29;14.50;59.70
56538;DHT22;42435;53.292;6.000;2023-04-07T15:56:56;14.50;59.80
56538;DHT22;42435;53.292;6.000;2023-04-07T15:59:21;14.50;59.80
56538;DHT22;42435;53.292;6.000;2023-04-07T16:01:47;14.50;59.50